Time;durP1;ratioP1;P1;durP2;ratioP2;P2;SDS_P1;SDS_P2;PMS_P1;PMS_P2;Temp;Humidity;BMP_temperature;BMP_pressure;BME280_temperature;BME280_humidity;BME280_pressure;Samples;Min_cycle;Max_cycle;Signal;HPM_P1;HPM_P2
2021/12/13 00:01:06;;;;;;;4.10;2.85;;;;;;;24.41;32.59;97166.97;10361989;28;98800;-69
2021/12/13 00:06:17;;;;;;;3.38;3.03;;;;;;;24.39;32.98;97163.69;10368358;28;97523;-69
2021/12/13 00:11:23;;;;;;;3.78;2.85;;;;;;;24.36;32.95;97162.25;10360585;28;97006;-69
2021/12/13 00:16:30;;;;;;;5.43;3.00;;;;;;;24.34;32.89;97156.31;10363537;28;97670;-69
2021/12/13 00:21:37;;;;;;;4.07;3.00;;;;;;;24.29;32.63;97148.94;10366632;28;97189;-67
2021/12/13 00:26:45;;;;;;;4.05;2.92;;;;;;;24.28;32.69;97147.31;10367796;28;97036;-67
2021/12/13 00:31:58;;;;;;;4.72;3.60;;;;;;;24.27;32.64;97150.19;10353575;28;97125;-69
2021/12/13 00:37:08;;;;;;;4.70;3.45;;;;;;;24.25;32.49;97154.94;10369529;28;96820;-68
2021/12/13 00:42:11;;;;;;;3.85;3.30;;;;;;;24.18;33.20;97148.81;10362599;28;96989;-67
2021/12/13 00:47:20;;;;;;;4.28;3.10;;;;;;;24.12;33.04;97153.13;10356971;28;96967;-67
2021/12/13 00:52:25;;;;;;;4.35;3.30;;;;;;;24.08;32.70;97142.03;10367159;28;96817;-67
2021/12/13 00:57:41;;;;;;;4.00;3.17;;;;;;;24.06;32.64;97146.78;10366202;28;98071;-67
2021/12/13 01:02:49;;;;;;;4.20;3.35;;;;;;;24.01;33.15;97141.22;10363118;28;98581;-67
2021/12/13 01:08:11;;;;;;;3.75;3.10;;;;;;;23.97;32.90;97140.00;10368504;28;98782;-67
2021/12/13 01:13:21;;;;;;;5.15;3.65;;;;;;;23.94;32.99;97151.09;10361075;28;97021;-67
2021/12/13 01:18:45;;;;;;;3.47;3.10;;;;;;;23.92;33.08;97142.50;10369518;28;96865;-68
2021/12/13 01:23:53;;;;;;;4.53;3.47;;;;;;;23.88;33.21;97131.44;10356386;28;96833;-67
2021/12/13 01:28:59;;;;;;;4.25;3.30;;;;;;;23.86;33.23;97141.50;10376458;28;96856;-67
2021/12/13 01:34:04;;;;;;;3.53;2.83;;;;;;;23.83;33.56;97136.56;10377018;28;96981;-67
2021/12/13 01:39:12;;;;;;;4.22;3.33;;;;;;;23.78;33.46;97130.22;10373223;28;96987;-67
2021/12/13 01:44:18;;;;;;;4.03;3.50;;;;;;;23.76;33.55;97146.44;10375733;28;97006;-67
2021/12/13 01:49:25;;;;;;;4.55;3.33;;;;;;;23.72;33.54;97146.03;10372194;28;96960;-67
2021/12/13 01:54:30;;;;;;;4.75;3.30;;;;;;;23.69;33.62;97138.47;10370591;28;99886;-68
2021/12/13 01:59:49;;;;;;;3.88;3.03;;;;;;;23.66;33.56;97141.53;10366559;28;97021;-67
2021/12/13 02:04:59;;;;;;;4.22;3.50;;;;;;;23.64;33.83;97148.94;10371911;28;100423;-67
2021/12/13 02:10:07;;;;;;;3.67;2.97;;;;;;;23.62;33.67;97147.47;10373891;28;97183;-68
2021/12/13 02:20:42;;;;;;;4.38;3.40;;;;;;;23.50;34.19;97142.00;10368900;28;98075;-67
2021/12/13 02:25:51;;;;;;;4.15;3.25;;;;;;;23.46;33.68;97132.75;10352482;28;97086;-67
2021/12/13 02:30:59;;;;;;;4.65;3.38;;;;;;;23.41;33.99;97141.38;10366436;28;97377;-67
2021/12/13 02:36:06;;;;;;;4.70;3.40;;;;;;;23.35;34.07;97137.69;10369602;28;96948;-67
2021/12/13 02:41:11;;;;;;;4.63;3.28;;;;;;;23.32;33.83;97134.59;10370904;28;98799;-68
2021/12/13 02:46:15;;;;;;;4.53;3.47;;;;;;;23.32;33.68;97132.75;10371765;28;96973;-67
2021/12/13 02:51:24;;;;;;;3.78;3.00;;;;;;;23.27;33.51;97129.03;10367789;28;96916;-67
2021/12/13 02:56:32;;;;;;;4.00;2.90;;;;;;;23.24;33.81;97132.97;10366124;28;97200;-67
2021/12/13 03:01:39;;;;;;;3.83;2.80;;;;;;;23.17;34.29;97114.31;10370563;28;97000;-67
2021/12/13 03:06:47;;;;;;;4.15;3.30;;;;;;;23.12;33.78;97114.09;10373239;28;98535;-67
2021/12/13 03:11:53;;;;;;;4.05;3.13;;;;;;;23.12;34.11;97123.94;10370905;28;97070;-67
2021/12/13 03:16:59;;;;;;;4.38;3.03;;;;;;;23.15;33.95;97115.50;10366410;28;97264;-67
2021/12/13 03:22:36;;;;;;;4.05;2.75;;;;;;;23.06;33.94;97117.56;10377943;28;96841;-67
2021/12/13 03:27:56;;;;;;;3.17;2.38;;;;;;;23.03;34.30;97118.00;10362411;28;96988;-67
2021/12/13 03:33:02;;;;;;;3.10;2.47;;;;;;;22.92;33.87;97111.41;10357215;28;98443;-66
2021/12/13 03:38:09;;;;;;;3.53;2.45;;;;;;;22.91;34.45;97107.13;10375200;28;99255;-67
2021/12/13 03:43:16;;;;;;;3.50;2.47;;;;;;;22.88;34.19;97110.19;10364749;28;97564;-67
2021/12/13 03:48:26;;;;;;;3.03;2.20;;;;;;;22.86;34.05;97109.59;10377952;28;98123;-66
2021/12/13 03:53:31;;;;;;;3.63;2.67;;;;;;;22.82;34.26;97105.69;10364350;28;98652;-66
2021/12/13 03:58:39;;;;;;;2.72;2.40;;;;;;;22.79;34.46;97098.13;10360959;28;97035;-67
2021/12/13 04:03:45;;;;;;;3.92;2.35;;;;;;;22.75;34.38;97107.53;10366925;28;98452;-67
2021/12/13 04:08:50;;;;;;;2.88;2.35;;;;;;;22.72;34.39;97105.28;10367453;28;97301;-66
2021/12/13 04:14:04;;;;;;;2.80;2.28;;;;;;;22.65;34.15;97099.09;10371237;28;97034;-67
2021/12/13 04:19:11;;;;;;;2.45;2.00;;;;;;;22.65;34.65;97107.09;10360785;28;97662;-67
2021/12/13 04:24:19;;;;;;;3.13;2.30;;;;;;;22.59;34.64;97104.22;10364541;28;98206;-68
2021/12/13 04:29:28;;;;;;;3.67;2.40;;;;;;;22.56;34.46;97107.31;10349212;28;98445;-68
2021/12/13 04:34:32;;;;;;;2.55;2.13;;;;;;;22.53;34.55;97112.22;10366361;28;98474;-67
2021/12/13 04:39:53;;;;;;;2.70;2.10;;;;;;;22.51;34.50;97107.09;10368231;28;96828;-67
2021/12/13 04:45:02;;;;;;;3.08;2.20;;;;;;;22.43;34.49;97102.72;10368942;28;98746;-67
2021/12/13 04:50:12;;;;;;;3.30;2.20;;;;;;;22.45;34.81;97110.53;10367474;28;98486;-67
2021/12/13 04:55:19;;;;;;;3.00;2.58;;;;;;;22.41;34.53;97114.63;10362090;28;98283;-67
2021/12/13 05:00:26;;;;;;;2.65;2.00;;;;;;;22.38;34.76;97101.69;10369737;28;98430;-68
2021/12/13 05:05:32;;;;;;;2.67;2.03;;;;;;;22.43;34.81;97117.91;10375375;28;101673;-67
2021/12/13 05:10:37;;;;;;;2.53;1.92;;;;;;;22.35;34.96;97115.41;10362909;28;98849;-68
2021/12/13 05:15:44;;;;;;;2.65;1.90;;;;;;;22.30;35.06;97113.38;10377365;28;97576;-67
2021/12/13 05:20:47;;;;;;;3.00;2.20;;;;;;;22.25;35.06;97111.28;10364994;28;97342;-67
2021/12/13 05:25:54;;;;;;;2.40;2.10;;;;;;;22.22;34.95;97111.69;10373242;28;98671;-67
2021/12/13 05:31:04;;;;;;;3.13;1.92;;;;;;;22.23;34.96;97120.50;10371141;28;97106;-66
2021/12/13 05:36:10;;;;;;;3.05;2.00;;;;;;;22.17;34.92;97118.66;10367464;28;96951;-67
2021/12/13 05:41:21;;;;;;;2.80;2.20;;;;;;;22.16;34.93;97112.50;10356762;28;97053;-67
2021/12/13 05:46:33;;;;;;;3.00;2.22;;;;;;;22.14;34.76;97117.19;10365225;28;97135;-67
2021/12/13 05:51:39;;;;;;;2.83;2.28;;;;;;;22.14;34.88;97108.38;10378100;28;97077;-67
2021/12/13 05:56:45;;;;;;;2.35;2.00;;;;;;;22.20;34.77;97118.25;10384815;28;96833;-67
2021/12/13 06:02:06;;;;;;;3.10;2.45;;;;;;;22.20;34.73;97118.25;10362125;28;97434;-68
2021/12/13 06:07:17;;;;;;;2.70;2.08;;;;;;;22.22;34.81;97122.34;10376117;28;97850;-68
2021/12/13 06:12:29;;;;;;;2.60;2.28;;;;;;;22.28;34.46;97126.03;10377120;28;96857;-69
2021/12/13 06:17:35;;;;;;;2.63;2.28;;;;;;;22.30;34.70;97125.84;10371555;28;99463;-69
2021/12/13 06:22:38;;;;;;;2.60;2.08;;;;;;;22.27;34.88;97120.94;10370602;28;96892;-68
2021/12/13 06:27:44;;;;;;;3.53;2.65;;;;;;;22.33;34.40;97136.09;10377401;28;97154;-68
2021/12/13 06:32:54;;;;;;;2.88;2.58;;;;;;;22.30;34.51;97126.69;10358231;28;98526;-68
2021/12/13 06:37:58;;;;;;;3.00;2.60;;;;;;;22.31;34.62;97124.81;10371464;28;98270;-68
2021/12/13 06:43:03;;;;;;;;;;;;;;;22.36;35.05;97144.50;10368757;28;96845;-67
2021/12/13 06:48:07;;;;;;;3.17;2.60;;;;;;;22.29;34.92;97137.53;10363988;28;97148;-68
2021/12/13 06:53:12;;;;;;;;;;;;;;;22.38;35.00;97157.59;10364312;28;99638;-66
2021/12/13 06:58:20;;;;;;;2.97;2.53;;;;;;;22.35;34.65;97147.34;10364294;28;97397;-66
2021/12/13 07:03:32;;;;;;;3.47;2.90;;;;;;;22.37;34.55;97150.63;10358631;28;97489;-67
2021/12/13 07:08:38;;;;;;;3.80;2.70;;;;;;;22.42;34.60;97156.19;10361808;28;99850;-69
2021/12/13 07:13:48;;;;;;;3.38;2.92;;;;;;;22.45;34.85;97153.94;10361823;28;99121;-68
2021/12/13 07:18:57;;;;;;;3.25;2.83;;;;;;;22.49;34.57;97158.88;10368895;28;97487;-69
2021/12/13 07:24:05;;;;;;;2.90;2.60;;;;;;;22.52;34.78;97158.50;10356953;28;97804;-69
2021/12/13 07:29:19;;;;;;;3.35;3.05;;;;;;;22.58;34.29;97161.19;10368435;28;99740;-67
2021/12/13 07:34:23;;;;;;;4.07;3.03;;;;;;;22.52;34.43;97155.84;10362997;28;98115;-68
2021/12/13 07:39:26;;;;;;;;;;;;;;;22.61;34.77;97174.09;10370587;28;97696;-69
2021/12/13 07:44:40;;;;;;;3.50;2.88;;;;;;;22.56;34.84;97176.53;10372745;28;97042;-69
2021/12/13 07:49:47;;;;;;;3.33;2.97;;;;;;;22.56;34.67;97171.22;10375329;28;97036;-68
2021/12/13 07:54:50;;;;;;;3.47;2.97;;;;;;;22.63;34.72;97172.06;10364901;28;97070;-68
2021/12/13 07:59:54;;;;;;;3.40;3.03;;;;;;;22.66;34.77;97172.66;10369948;28;97093;-67
2021/12/13 08:05:01;;;;;;;3.67;3.05;;;;;;;22.75;34.70;97179.44;10370299;28;96811;-67
2021/12/13 08:10:07;;;;;;;3.88;2.85;;;;;;;22.85;35.05;97179.88;10366799;28;96795;-68
2021/12/13 08:15:15;;;;;;;2.83;2.40;;;;;;;22.97;34.96;97178.25;10365389;28;96898;-69
2021/12/13 08:20:25;;;;;;;3.60;2.80;;;;;;;23.05;35.01;97184.38;10355319;28;97001;-68
2021/12/13 08:25:33;;;;;;;3.40;3.10;;;;;;;23.04;35.17;97183.59;10370547;28;96924;-68
2021/12/13 08:30:46;;;;;;;3.50;2.90;;;;;;;23.04;35.08;97185.44;10368378;28;97270;-68
2021/12/13 08:36:02;;;;;;;3.55;3.00;;;;;;;23.07;34.89;97177.03;10373301;28;97345;-68
2021/12/13 08:41:17;;;;;;;5.68;3.30;;;;;;;23.14;35.30;97183.19;10362777;28;96873;-71
2021/12/13 08:46:29;;;;;;;4.13;3.28;;;;;;;23.21;34.94;97186.69;10370998;28;97077;-70
2021/12/13 08:51:33;;;;;;;3.85;3.17;;;;;;;23.22;34.71;97182.16;10372247;28;98065;-70
2021/12/13 08:56:42;;;;;;;;;;;;;;;23.24;35.07;97188.94;10363361;28;98818;-70
2021/12/13 09:01:50;;;;;;;4.55;3.55;;;;;;;23.22;34.73;97190.16;10373871;28;98857;-70
2021/12/13 09:06:58;;;;;;;4.72;3.28;;;;;;;23.14;34.05;97181.34;10377655;28;97133;-69
2021/12/13 09:12:07;;;;;;;4.45;3.85;;;;;;;23.22;33.98;97201.66;10369700;28;96940;-69
2021/12/13 09:17:21;;;;;;;3.65;3.20;;;;;;;23.19;33.78;97191.41;10374208;28;97120;-70
2021/12/13 09:22:30;;;;;;;5.03;3.20;;;;;;;23.16;34.08;97197.13;10368395;28;98164;-68
2021/12/13 09:27:38;;;;;;;3.50;3.17;;;;;;;23.16;33.67;97197.94;10366989;28;101263;-67
2021/12/13 09:32:45;;;;;;;3.25;2.90;;;;;;;23.17;33.32;97198.78;10370133;28;97665;-67
2021/12/13 09:37:52;;;;;;;3.53;2.80;;;;;;;23.21;33.86;97200.00;10367968;28;101342;-67
2021/12/13 09:42:58;;;;;;;3.13;2.83;;;;;;;23.29;33.46;97202.50;10366881;28;97012;-67
2021/12/13 09:48:15;;;;;;;2.55;2.33;;;;;;;23.29;33.68;97197.16;10369062;28;100909;-67
2021/12/13 09:53:24;;;;;;;3.90;2.72;;;;;;;23.35;34.03;97201.66;10371856;28;98368;-67
2021/12/13 09:58:37;;;;;;;2.78;2.50;;;;;;;23.37;33.81;97191.63;10370751;28;98332;-68
2021/12/13 10:03:50;;;;;;;3.40;2.22;;;;;;;23.45;34.16;97192.47;10368389;28;97052;-70
2021/12/13 10:09:01;;;;;;;2.90;2.50;;;;;;;23.47;34.23;97183.22;10367958;28;98047;-70
2021/12/13 10:14:08;;;;;;;2.80;2.30;;;;;;;23.53;34.34;97185.06;10366658;28;98764;-70
2021/12/13 10:19:15;;;;;;;3.75;2.47;;;;;;;23.66;34.11;97176.22;10375129;28;97153;-68
2021/12/13 10:24:25;;;;;;;3.30;2.63;;;;;;;23.70;33.70;97161.41;10366607;28;97165;-69
2021/12/13 10:29:30;;;;;;;2.58;2.10;;;;;;;23.72;34.01;97175.41;10379987;28;97052;-69
2021/12/13 10:34:35;;;;;;;2.85;2.30;;;;;;;23.75;34.11;97164.28;10366271;28;101227;-70
2021/12/13 10:39:45;;;;;;;2.80;2.38;;;;;;;23.72;33.51;97159.38;10371811;28;101015;-69
2021/12/13 10:44:48;;;;;;;2.30;2.03;;;;;;;23.70;33.96;97160.59;10371320;28;97166;-71
2021/12/13 10:49:53;;;;;;;2.93;2.30;;;;;;;23.75;33.79;97164.28;10372670;28;97335;-70
2021/12/13 10:55:00;;;;;;;2.22;2.03;;;;;;;23.71;33.62;97168.41;10372338;28;97787;-70
2021/12/13 11:00:07;;;;;;;3.65;2.42;;;;;;;23.71;33.72;97168.41;10370582;28;98460;-69
2021/12/13 11:05:14;;;;;;;2.50;2.30;;;;;;;23.70;33.79;97160.59;10369735;28;98738;-69
2021/12/13 11:10:22;;;;;;;2.42;2.20;;;;;;;23.70;33.49;97155.28;10371444;28;97449;-69
2021/12/13 11:15:35;;;;;;;2.88;2.50;;;;;;;23.73;33.46;97153.00;10367525;28;96975;-69
2021/12/13 11:20:42;;;;;;;2.80;2.35;;;;;;;23.76;33.39;97157.13;10362898;28;98064;-69
2021/12/13 11:25:50;;;;;;;2.72;2.22;;;;;;;23.81;33.18;97151.97;10363371;28;99128;-70
2021/12/13 11:30:54;;;;;;;2.78;2.40;;;;;;;23.85;33.29;97150.53;10364602;28;97969;-70
2021/12/13 11:36:36;;;;;;;4.20;2.25;;;;;;;23.96;33.27;97138.38;10363961;28;97426;-71
2021/12/13 11:42:17;;;;;;;3.13;2.60;;;;;;;23.97;33.13;97140.00;10361615;28;98099;-74
2021/12/13 11:47:44;;;;;;;2.55;2.30;;;;;;;23.98;33.25;97133.63;10361202;28;97097;-69
2021/12/13 11:53:15;;;;;;;2.85;2.60;;;;;;;24.02;33.47;97113.50;10366851;28;98390;-69
2021/12/13 11:58:42;;;;;;;3.85;2.50;;;;;;;24.08;33.19;97120.69;10367282;28;97198;-65
2021/12/13 12:04:12;;;;;;;3.45;2.72;;;;;;;24.12;33.57;97115.75;10366877;28;97451;-65
2021/12/13 12:09:51;;;;;;;2.78;2.35;;;;;;;24.12;33.19;97113.06;10357764;28;97840;-65
2021/12/13 12:15:00;;;;;;;3.40;2.35;;;;;;;24.15;33.51;97111.84;10362018;28;98506;-63
2021/12/13 12:20:05;;;;;;;2.95;2.60;;;;;;;24.19;33.51;97105.03;10363721;28;98945;-64
2021/12/13 12:25:08;;;;;;;2.83;2.58;;;;;;;24.23;33.49;97090.25;10363179;28;97627;-64
2021/12/13 12:30:16;;;;;;;2.63;2.20;;;;;;;24.09;33.16;97084.97;10364070;28;97553;-63
2021/12/13 12:35:21;;;;;;;2.92;2.63;;;;;;;24.05;33.76;97082.91;10367862;28;98775;-64
2021/12/13 12:40:27;;;;;;;2.90;2.58;;;;;;;24.06;33.67;97079.25;10366519;28;97515;-64
2021/12/13 12:45:35;;;;;;;363.80;114.78;;;;;;;24.07;34.04;97076.38;10363723;28;97213;-64
2021/12/13 12:50:49;;;;;;;899.90;339.15;;;;;;;24.14;34.42;97081.66;10360105;28;97122;-64
2021/12/13 12:55:56;;;;;;;1329.28;515.65;;;;;;;24.24;34.69;97073.19;10363767;28;97987;-64
2021/12/13 13:01:05;;;;;;;1310.45;510.27;;;;;;;24.33;34.62;97074.56;10365375;28;100170;-64
2021/12/13 13:06:11;;;;;;;1275.07;506.20;;;;;;;24.39;34.38;97065.69;10362818;28;97585;-64
2021/12/13 13:11:29;;;;;;;1154.45;472.80;;;;;;;24.36;34.41;97063.44;10362048;28;97214;-64
2021/12/13 13:16:36;;;;;;;1080.30;442.58;;;;;;;24.39;34.83;97068.38;10363217;28;97561;-64
2021/12/13 13:21:44;;;;;;;985.42;415.55;;;;;;;24.41;34.95;97063.63;10367047;28;98069;-64
2021/12/13 13:26:49;;;;;;;957.60;405.67;;;;;;;24.43;34.33;97064.22;10371943;28;98068;-64
2021/12/13 13:31:57;;;;;;;949.55;400.30;;;;;;;24.41;34.18;97060.97;10368339;28;97252;-64
2021/12/13 13:37:06;;;;;;;881.50;372.30;;;;;;;24.42;34.02;97051.91;10366645;28;98512;-64
2021/12/13 13:42:12;;;;;;;842.50;356.08;;;;;;;24.46;34.42;97057.66;10367729;28;101840;-64
2021/12/13 13:47:19;;;;;;;812.08;347.73;;;;;;;24.48;34.06;97056.38;10365972;28;97633;-64
2021/12/13 13:52:25;;;;;;;785.17;333.38;;;;;;;24.52;34.13;97063.97;10367695;28;97200;-64
2021/12/13 13:57:31;;;;;;;746.30;320.40;;;;;;;24.54;34.11;97057.41;10365303;28;97552;-64
2021/12/13 14:02:38;;;;;;;718.17;314.85;;;;;;;24.53;33.85;97060.28;10365286;28;97037;-64
2021/12/13 14:07:43;;;;;;;687.10;300.55;;;;;;;24.56;34.14;97060.66;10369322;28;99007;-63
2021/12/13 14:12:48;;;;;;;665.28;291.67;;;;;;;24.56;34.07;97067.84;10366067;28;97935;-64
2021/12/13 14:17:55;;;;;;;642.78;279.98;;;;;;;24.55;34.03;97066.22;10367875;28;97653;-64
2021/12/13 14:23:01;;;;;;;619.38;268.85;;;;;;;24.59;33.68;97056.72;10366016;28;97463;-64
2021/12/13 14:28:08;;;;;;;593.45;264.17;;;;;;;24.62;33.83;97061.63;10368189;28;96884;-65
2021/12/13 14:33:25;;;;;;;562.67;245.88;;;;;;;24.62;33.54;97062.44;10362849;28;97344;-65
2021/12/13 14:38:29;;;;;;;560.33;241.85;;;;;;;24.61;33.91;97060.00;10365309;28;101219;-66
2021/12/13 14:43:35;;;;;;;540.20;235.40;;;;;;;24.65;33.69;97061.22;10371026;28;97379;-66
2021/12/13 14:48:40;;;;;;;538.42;229.23;;;;;;;24.69;33.48;97062.41;10366234;28;97120;-65
2021/12/13 14:53:45;;;;;;;496.33;213.90;;;;;;;24.68;33.84;97068.81;10367693;28;98421;-63
2021/12/13 14:58:51;;;;;;;494.40;206.50;;;;;;;24.72;33.56;97061.16;10369650;28;97920;-63
2021/12/13 15:04:04;;;;;;;458.08;195.70;;;;;;;24.65;33.59;97069.22;10368802;28;97030;-66
2021/12/13 15:09:11;;;;;;;450.98;185.65;;;;;;;24.64;33.66;97065.75;10364146;28;105068;-63
2021/12/13 15:14:21;;;;;;;428.15;171.95;;;;;;;24.58;33.17;97060.44;10367766;28;101075;-64
2021/12/13 15:19:29;;;;;;;412.73;167.90;;;;;;;24.55;33.03;97074.22;10365814;28;98003;-63
2021/12/13 15:24:35;;;;;;;388.10;154.68;;;;;;;24.51;33.25;97076.50;10367953;28;97835;-62
2021/12/13 15:29:38;;;;;;;371.63;148.00;;;;;;;24.50;33.00;97075.72;10365965;28;97661;-63
2021/12/13 15:34:51;;;;;;;360.02;141.15;;;;;;;24.45;33.02;97072.88;10362092;28;98435;-63
2021/12/13 15:40:11;;;;;;;341.25;136.65;;;;;;;24.49;32.87;97076.72;10360750;28;97512;-62
2021/12/13 15:45:23;;;;;;;317.48;127.72;;;;;;;24.45;32.96;97083.53;10364342;28;97073;-61
2021/12/13 15:50:31;;;;;;;296.80;121.82;;;;;;;24.42;33.06;97081.28;10364898;28;97543;-62
2021/12/13 15:55:37;;;;;;;297.27;120.40;;;;;;;24.46;32.58;97092.38;10365712;28;97412;-62
2021/12/13 16:00:41;;;;;;;265.40;113.57;;;;;;;24.41;32.29;97082.31;10365332;28;100310;-62
2021/12/13 16:05:47;;;;;;;261.48;107.50;;;;;;;24.42;32.55;97091.16;10362179;28;96906;-62
2021/12/13 16:10:50;;;;;;;253.90;106.00;;;;;;;24.46;31.91;97100.38;10373278;28;97023;-62
2021/12/13 16:15:53;;;;;;;248.68;104.25;;;;;;;24.39;32.09;97096.94;10363663;28;97202;-62
2021/12/13 16:20:57;;;;;;;222.45;98.60;;;;;;;24.41;31.89;97113.56;10362389;28;97064;-62
2021/12/13 16:26:05;;;;;;;230.30;96.45;;;;;;;24.38;31.71;97103.28;10362667;28;96913;-62
2021/12/13 16:31:10;;;;;;;209.18;90.63;;;;;;;24.37;31.84;97102.47;10371012;28;97241;-62
2021/12/13 16:36:17;;;;;;;196.57;84.85;;;;;;;24.39;31.69;97112.97;10366541;28;97980;-62
2021/12/13 16:41:23;;;;;;;202.00;85.25;;;;;;;24.38;31.33;97122.81;10374996;28;97122;-62
2021/12/13 16:46:28;;;;;;;194.43;84.55;;;;;;;24.33;31.46;97121.81;10355561;28;97868;-62
2021/12/13 16:51:36;;;;;;;108.90;50.50;;;;;;;24.10;30.99;97123.97;10372026;28;97505;-66
2021/12/13 16:56:41;;;;;;;125.00;58.47;;;;;;;24.06;30.98;97122.75;10369677;28;98604;-62
2021/12/13 17:01:46;;;;;;;128.77;55.70;;;;;;;24.05;31.13;97129.13;10374302;28;96878;-62
2021/12/13 17:06:56;;;;;;;123.50;54.78;;;;;;;24.16;30.80;97132.16;10371551;28;99341;-62
2021/12/13 17:12:06;;;;;;;128.23;54.22;;;;;;;24.14;31.46;97137.72;10373533;28;97374;-62
2021/12/13 17:17:09;;;;;;;116.63;52.83;;;;;;;24.20;31.07;97144.88;10373115;28;98835;-62
2021/12/13 17:22:14;;;;;;;117.40;53.97;;;;;;;24.29;31.35;97150.78;10374506;28;97274;-63
2021/12/13 17:27:22;;;;;;;113.00;52.17;;;;;;;24.29;31.57;97156.94;10370874;28;97294;-62
2021/12/13 17:32:35;;;;;;;109.65;50.38;;;;;;;24.34;31.03;97148.31;10371215;28;97991;-62
2021/12/13 17:37:51;;;;;;;101.57;48.22;;;;;;;24.35;31.15;97149.94;10358404;28;98638;-64
2021/12/13 17:43:03;;;;;;;102.30;47.50;;;;;;;24.35;31.48;97149.94;10369101;28;100965;-62
2021/12/13 17:48:17;;;;;;;99.95;47.35;;;;;;;24.47;31.65;97150.91;10365357;28;97243;-61
2021/12/13 17:53:24;;;;;;;;;;;;;;;24.55;31.54;97165.03;10366418;28;98302;-62
2021/12/13 17:58:31;;;;;;;94.40;44.20;;;;;;;24.54;31.87;97161.56;10364706;28;97469;-62
2021/12/13 18:03:42;;;;;;;88.55;40.47;;;;;;;24.55;31.82;97167.72;10370166;28;97296;-61
2021/12/13 18:09:26;;;;;;;82.50;40.13;;;;;;;24.45;31.89;97158.31;10365501;28;97561;-61
2021/12/13 18:14:52;;;;;;;84.00;40.75;;;;;;;24.36;31.89;97164.94;10377005;28;97231;-61
2021/12/13 18:20:01;;;;;;;81.05;38.63;;;;;;;24.35;32.00;97171.31;10365484;28;97641;-62
2021/12/13 18:25:07;;;;;;;74.05;36.00;;;;;;;24.41;31.63;97177.66;10363586;28;98185;-63
2021/12/13 18:30:20;;;;;;;75.07;34.33;;;;;;;24.40;31.60;97176.84;10366808;28;97815;-61
2021/12/13 18:35:28;;;;;;;68.47;35.08;;;;;;;24.45;31.83;97179.69;10364131;28;97235;-62
2021/12/13 18:40:33;;;;;;;68.13;32.90;;;;;;;24.43;31.76;97176.38;10366673;28;97142;-61
2021/12/13 18:45:41;;;;;;;60.78;30.48;;;;;;;24.52;31.95;97176.16;10363950;28;97279;-61
2021/12/13 18:50:48;;;;;;;59.40;29.20;;;;;;;24.49;32.04;97188.91;10363720;28;97213;-61
2021/12/13 18:55:54;;;;;;;60.25;29.25;;;;;;;24.50;32.05;97187.88;10359951;28;97054;-63
2021/12/13 19:01:08;;;;;;;48.03;25.83;;;;;;;24.48;31.92;97184.59;10359074;28;97827;-63
2021/12/13 19:06:15;;;;;;;53.38;26.17;;;;;;;24.52;31.68;97189.50;10354366;28;98302;-64
2021/12/13 19:11:25;;;;;;;50.42;25.98;;;;;;;24.53;32.05;97196.50;10366782;28;98940;-65
2021/12/13 19:16:38;;;;;;;48.75;24.90;;;;;;;24.55;31.82;97189.09;10365892;28;97260;-65
2021/12/13 19:21:46;;;;;;;45.92;22.67;;;;;;;24.52;31.65;97201.00;10362222;28;97629;-64
2021/12/13 19:26:54;;;;;;;45.13;22.40;;;;;;;24.48;31.47;97189.13;10368340;28;97373;-64
2021/12/13 19:32:00;;;;;;;43.70;22.70;;;;;;;24.51;31.24;97194.03;10364417;28;97216;-64
2021/12/13 19:37:09;;;;;;;38.70;20.92;;;;;;;24.48;31.06;97192.59;10367165;28;97285;-64
2021/12/13 19:42:18;;;;;;;39.08;20.58;;;;;;;24.48;31.38;97197.13;10361430;28;98553;-64
2021/12/13 19:47:29;;;;;;;37.25;20.23;;;;;;;24.44;30.99;97194.06;10360452;28;98327;-64
2021/12/13 19:52:35;;;;;;;37.20;19.70;;;;;;;24.48;30.94;97189.13;10361671;28;98758;-63
2021/12/13 19:57:41;;;;;;;35.42;18.58;;;;;;;24.36;31.11;97188.97;10361098;28;96978;-62
2021/12/13 20:02:54;;;;;;;31.77;18.23;;;;;;;24.37;31.44;97192.47;10369260;28;97091;-63
2021/12/13 20:08:01;;;;;;;32.55;17.77;;;;;;;24.33;31.92;97196.56;10362230;28;98712;-63
2021/12/13 20:13:09;;;;;;;34.67;18.00;;;;;;;24.29;32.08;97191.66;10367025;28;97113;-63
2021/12/13 20:18:17;;;;;;;31.27;17.13;;;;;;;24.34;32.23;97188.34;10351776;28;97364;-63
2021/12/13 20:23:23;;;;;;;28.20;15.77;;;;;;;24.38;32.30;97183.41;10360302;28;100902;-63
2021/12/13 20:28:32;;;;;;;26.60;15.85;;;;;;;24.37;32.15;97182.59;10367082;28;97226;-65
2021/12/13 20:33:44;;;;;;;26.45;14.82;;;;;;;24.40;32.69;97186.69;10371048;28;97339;-63
2021/12/13 20:38:50;;;;;;;26.88;14.88;;;;;;;24.46;32.19;97186.66;10372977;28;96988;-63
2021/12/13 20:44:00;;;;;;;26.13;15.02;;;;;;;24.46;32.27;97185.84;10374561;28;97289;-63
2021/12/13 20:49:09;;;;;;;22.83;13.35;;;;;;;24.45;32.15;97173.50;10367765;28;97163;-64
2021/12/13 20:54:18;;;;;;;26.73;14.07;;;;;;;24.54;32.22;97176.75;10363871;28;98436;-63
2021/12/13 20:59:27;;;;;;;22.05;12.77;;;;;;;24.57;32.16;97179.00;10371575;28;97351;-63
2021/12/13 21:04:35;;;;;;;24.90;13.52;;;;;;;24.54;31.47;97180.25;10373967;28;97394;-63
2021/12/13 21:09:42;;;;;;;21.55;12.43;;;;;;;24.46;31.94;97169.81;10372478;28;97120;-63
2021/12/13 21:14:51;;;;;;;21.95;12.45;;;;;;;24.43;31.45;97170.25;10372670;28;97406;-63
2021/12/13 21:20:07;;;;;;;20.40;12.43;;;;;;;24.46;31.34;97170.63;10376770;28;99997;-63
2021/12/13 21:25:15;;;;;;;19.35;12.18;;;;;;;24.48;31.23;97183.78;10377805;28;97495;-63
2021/12/13 21:30:21;;;;;;;18.13;11.07;;;;;;;24.53;30.98;97185.81;10369553;28;98775;-63
2021/12/13 21:35:38;;;;;;;19.63;12.02;;;;;;;24.41;31.09;97172.31;10374470;28;97229;-64
2021/12/13 21:40:44;;;;;;;17.45;11.27;;;;;;;24.44;31.16;97166.53;10371705;28;97485;-63
2021/12/13 21:45:51;;;;;;;15.90;10.52;;;;;;;24.45;30.96;97179.69;10369059;28;97140;-63
2021/12/13 21:51:00;;;;;;;15.05;9.77;;;;;;;24.48;30.88;97176.56;10372330;28;97406;-63
2021/12/13 21:56:08;;;;;;;15.57;10.05;;;;;;;24.42;30.74;97188.13;10368583;28;97736;-63
2021/12/13 22:01:23;;;;;;;16.25;10.00;;;;;;;24.35;30.92;97195.34;10373626;28;97382;-63
2021/12/13 22:06:30;;;;;;;15.85;10.00;;;;;;;24.44;30.59;97198.59;10367858;28;97357;-63
2021/12/13 22:11:37;;;;;;;13.68;9.55;;;;;;;24.39;31.15;97191.22;10366464;28;97951;-63
2021/12/13 22:16:42;;;;;;;15.27;9.15;;;;;;;24.39;30.70;97198.41;10367099;28;98909;-62
2021/12/13 22:21:51;;;;;;;12.98;8.77;;;;;;;24.38;31.10;97188.75;10362766;28;98334;-62
2021/12/13 22:27:00;;;;;;;12.68;8.85;;;;;;;24.35;30.76;97195.34;10359220;28;101323;-63
2021/12/13 22:32:07;;;;;;;14.18;8.93;;;;;;;24.25;31.03;97195.78;10369354;28;97139;-63
2021/12/13 22:37:24;;;;;;;13.20;8.05;;;;;;;24.27;30.82;97200.91;10374291;28;99121;-62
2021/12/13 22:42:27;;;;;;;11.70;8.02;;;;;;;24.29;30.99;97190.84;10369507;28;98544;-61
2021/12/13 22:47:34;;;;;;;12.33;8.27;;;;;;;24.42;30.98;97188.13;10364751;28;97136;-63
2021/12/13 22:52:43;;;;;;;11.93;7.80;;;;;;;24.42;30.93;97190.78;10369245;28;97091;-63
2021/12/13 22:57:47;;;;;;;10.55;7.50;;;;;;;24.36;31.05;97196.97;10368159;28;96936;-63
2021/12/13 23:02:51;;;;;;;11.45;7.70;;;;;;;24.35;30.64;97190.00;10368807;28;97061;-63
2021/12/13 23:07:59;;;;;;;9.75;7.15;;;;;;;24.29;30.62;97188.16;10371140;28;97308;-63
2021/12/13 23:18:29;;;;;;;10.43;6.85;;;;;;;24.29;30.95;97185.50;10367684;28;97317;-63
2021/12/13 23:23:34;;;;;;;9.43;6.93;;;;;;;24.23;30.62;97181.03;10371805;28;97923;-63
2021/12/13 23:28:42;;;;;;;9.15;6.40;;;;;;;24.18;30.72;97178.97;10370669;28;97152;-64
2021/12/13 23:33:48;;;;;;;8.32;6.32;;;;;;;24.17;31.25;97171.19;10371690;28;98338;-64
2021/12/13 23:49:42;;;;;;;9.88;6.45;;;;;;;24.12;31.13;97172.63;10371897;28;97160;-63
2021/12/13 23:54:53;;;;;;;9.20;6.15;;;;;;;24.10;31.31;97171.19;10372585;28;96915;-63
2021/12/13 23:59:59;;;;;;;9.55;6.38;;;;;;;24.09;31.50;97173.06;10370984;28;97051;-63
